Time;durP1;ratioP1;P1;durP2;ratioP2;P2;SDS_P1;SDS_P2;PMS_P1;PMS_P2;Temp;Humidity;BMP_temperature;BMP_pressure;BME280_temperature;BME280_humidity;BME280_pressure;Samples;Min_cycle;Max_cycle;Signal;HPM_P1;HPM_P2
2022/05/09 00:00:21;;;;;;;16.53;13.83;;;;;;;;;;4947209;29;20293;-73
2022/05/09 00:02:48;;;;;;;17.80;13.37;;;;;;;;;;4947813;29;20213;-73
2022/05/09 00:05:17;;;;;;;17.73;14.57;;;;;;;;;;4946190;29;20278;-72
2022/05/09 00:07:46;;;;;;;18.33;14.23;;;;;;;;;;4948142;28;20294;-73
2022/05/09 00:10:14;;;;;;;18.40;14.53;;;;;;;;;;4948830;28;20254;-72
2022/05/09 00:12:42;;;;;;;17.27;13.70;;;;;;;;;;4946287;28;20231;-73
2022/05/09 00:15:09;;;;;;;15.90;13.53;;;;;;;;;;4952833;29;20200;-73
2022/05/09 00:17:37;;;;;;;19.40;13.77;;;;;;;;;;4953028;29;20231;-73
2022/05/09 00:20:05;;;;;;;18.70;13.67;;;;;;;;;;4950049;29;20283;-73
2022/05/09 00:22:33;;;;;;;18.13;14.17;;;;;;;;;;4950268;29;20212;-73
2022/05/09 00:25:02;;;;;;;18.03;13.63;;;;;;;;;;4939852;29;20297;-73
2022/05/09 00:27:29;;;;;;;17.70;14.53;;;;;;;;;;4935660;29;20244;-73
2022/05/09 00:29:57;;;;;;;18.63;15.03;;;;;;;;;;4933704;29;20684;-73
2022/05/09 00:32:25;;;;;;;18.00;15.17;;;;;;;;;;4935998;29;20207;-73
2022/05/09 00:34:52;;;;;;;19.67;14.83;;;;;;;;;;4930646;29;20208;-73
2022/05/09 00:37:19;;;;;;;19.67;15.37;;;;;;;;;;4936448;29;20310;-72
2022/05/09 00:39:47;;;;;;;19.43;14.53;;;;;;;;;;4936443;29;20231;-73
2022/05/09 00:42:15;;;;;;;18.50;15.60;;;;;;;;;;4932307;29;20200;-72
2022/05/09 00:44:43;;;;;;;17.87;15.43;;;;;;;;;;4941860;29;20211;-72
2022/05/09 00:47:10;;;;;;;18.93;15.83;;;;;;;;;;4942518;29;20294;-73
2022/05/09 00:49:40;;;;;;;19.50;15.27;;;;;;;;;;4939675;29;20227;-72
2022/05/09 00:52:10;;;;;;;20.97;15.13;;;;;;;;;;4931659;29;20219;-73
2022/05/09 00:54:40;;;;;;;19.93;15.07;;;;;;;;;;4935829;29;20290;-72
2022/05/09 00:57:08;;;;;;;20.73;16.07;;;;;;;;;;4938136;29;20299;-73
2022/05/09 00:59:38;;;;;;;21.43;16.53;;;;;;;;;;4935701;29;20253;-73
2022/05/09 01:02:06;;;;;;;24.33;16.73;;;;;;;;;;4931825;29;20701;-73
2022/05/09 01:04:36;;;;;;;22.37;16.67;;;;;;;;;;4935094;29;20294;-73
2022/05/09 01:07:04;;;;;;;23.10;17.40;;;;;;;;;;4935618;29;20235;-73
2022/05/09 01:09:31;;;;;;;20.40;16.30;;;;;;;;;;4936929;29;20251;-73
2022/05/09 01:11:59;;;;;;;20.30;16.47;;;;;;;;;;4935919;29;20301;-73
2022/05/09 01:14:28;;;;;;;21.73;17.23;;;;;;;;;;4928181;29;20307;-72
2022/05/09 01:16:58;;;;;;;19.33;15.53;;;;;;;;;;4939158;29;20294;-73
2022/05/09 01:19:30;;;;;;;21.87;16.87;;;;;;;;;;4934276;29;20251;-72
2022/05/09 01:22:00;;;;;;;22.00;16.07;;;;;;;;;;4934053;29;20376;-72
2022/05/09 01:24:27;;;;;;;23.10;15.97;;;;;;;;;;4938401;28;20273;-72
2022/05/09 01:26:55;;;;;;;21.93;16.63;;;;;;;;;;4952432;28;20267;-72
2022/05/09 01:29:25;;;;;;;22.60;16.80;;;;;;;;;;4949923;29;20650;-72
2022/05/09 01:31:54;;;;;;;20.30;16.30;;;;;;;;;;4952107;28;20293;-72
2022/05/09 01:34:21;;;;;;;20.40;16.23;;;;;;;;;;4951006;29;20243;-72
2022/05/09 01:36:50;;;;;;;21.67;16.83;;;;;;;;;;4951236;28;20939;-72
2022/05/09 01:39:19;;;;;;;20.07;16.17;;;;;;;;;;4952164;28;20234;-72
2022/05/09 01:41:48;;;;;;;20.40;15.93;;;;;;;;;;4947152;29;20301;-72
2022/05/09 01:44:16;;;;;;;19.20;16.40;;;;;;;;;;4949880;28;20202;-72
2022/05/09 01:49:31;;;;;;;22.50;16.80;;;;;;;;;;4947724;28;20295;-72
2022/05/09 01:51:59;;;;;;;22.70;16.50;;;;;;;;;;4951755;29;20295;-73
2022/05/09 01:54:28;;;;;;;21.97;16.70;;;;;;;;;;4951654;29;20301;-72
2022/05/09 01:56:55;;;;;;;21.87;15.93;;;;;;;;;;4950358;28;20305;-72
2022/05/09 01:59:22;;;;;;;20.20;16.10;;;;;;;;;;4949629;28;20374;-73
2022/05/09 02:01:52;;;;;;;24.00;17.73;;;;;;;;;;4951700;28;20851;-73
2022/05/09 02:04:19;;;;;;;22.00;16.57;;;;;;;;;;4953602;28;20221;-72
2022/05/09 02:06:47;;;;;;;22.40;16.23;;;;;;;;;;4951114;28;20606;-73
2022/05/09 02:09:14;;;;;;;21.53;16.40;;;;;;;;;;4949837;28;20274;-72
2022/05/09 02:11:42;;;;;;;21.17;16.63;;;;;;;;;;4949794;28;20643;-72
2022/05/09 02:14:10;;;;;;;25.57;17.53;;;;;;;;;;4947447;29;20282;-73
2022/05/09 02:16:37;;;;;;;19.87;16.47;;;;;;;;;;4951020;29;20293;-72
2022/05/09 02:19:06;;;;;;;23.10;17.27;;;;;;;;;;4950129;29;20229;-73
2022/05/09 02:21:34;;;;;;;23.20;17.87;;;;;;;;;;4949617;29;20237;-73
2022/05/09 02:24:01;;;;;;;23.40;17.57;;;;;;;;;;4951929;28;20324;-73
2022/05/09 02:26:28;;;;;;;19.97;16.40;;;;;;;;;;4950140;29;20248;-72
2022/05/09 02:28:57;;;;;;;21.13;17.03;;;;;;;;;;4951189;28;20281;-72
2022/05/09 02:31:26;;;;;;;20.10;16.23;;;;;;;;;;4950038;28;20301;-72
2022/05/09 02:33:53;;;;;;;19.67;15.23;;;;;;;;;;4950716;29;20205;-72
2022/05/09 02:36:20;;;;;;;20.13;16.27;;;;;;;;;;4950902;28;20215;-73
2022/05/09 02:38:47;;;;;;;19.30;15.53;;;;;;;;;;4949964;29;20228;-72
2022/05/09 02:41:14;;;;;;;21.13;16.67;;;;;;;;;;4948391;28;20293;-72
2022/05/09 02:43:41;;;;;;;21.87;16.27;;;;;;;;;;4952313;28;20235;-72
2022/05/09 02:46:10;;;;;;;22.50;16.87;;;;;;;;;;4949802;29;20201;-73
2022/05/09 02:48:38;;;;;;;20.97;16.10;;;;;;;;;;4949829;28;20238;-72
2022/05/09 02:51:06;;;;;;;22.23;15.57;;;;;;;;;;4948441;29;20237;-72
2022/05/09 02:53:33;;;;;;;21.80;16.57;;;;;;;;;;4948783;29;20286;-72
2022/05/09 02:56:00;;;;;;;21.53;16.47;;;;;;;;;;4948613;29;20204;-72
2022/05/09 02:58:27;;;;;;;22.23;15.97;;;;;;;;;;4951150;28;20211;-73
2022/05/09 03:00:54;;;;;;;21.67;16.47;;;;;;;;;;4949469;29;20888;-72
2022/05/09 03:06:08;;;;;;;23.57;17.97;;;;;;;;;;4946719;29;20210;-72
2022/05/09 03:08:35;;;;;;;24.00;18.70;;;;;;;;;;4949403;29;20204;-72
2022/05/09 03:11:02;;;;;;;28.00;19.87;;;;;;;;;;4950423;28;20315;-72
2022/05/09 03:13:30;;;;;;;26.73;19.63;;;;;;;;;;4949660;28;20397;-72
2022/05/09 03:15:58;;;;;;;26.57;19.63;;;;;;;;;;4946814;29;20268;-73
2022/05/09 03:18:26;;;;;;;27.50;20.60;;;;;;;;;;4946638;28;20307;-72
2022/05/09 03:20:54;;;;;;;24.70;19.70;;;;;;;;;;4943512;29;20313;-72
2022/05/09 03:23:21;;;;;;;27.83;19.77;;;;;;;;;;4943967;29;20347;-72
2022/05/09 03:25:48;;;;;;;26.63;19.53;;;;;;;;;;4928882;29;20295;-73
2022/05/09 03:28:18;;;;;;;28.17;20.83;;;;;;;;;;4929630;29;20267;-73
2022/05/09 03:30:46;;;;;;;27.47;20.00;;;;;;;;;;4930021;29;20204;-72
2022/05/09 03:33:14;;;;;;;27.93;20.13;;;;;;;;;;4930061;29;20202;-73
2022/05/09 03:35:42;;;;;;;28.03;19.97;;;;;;;;;;4929738;29;20228;-72
2022/05/09 03:38:10;;;;;;;24.10;19.17;;;;;;;;;;4930439;29;20224;-72
2022/05/09 03:40:37;;;;;;;25.60;19.43;;;;;;;;;;4929253;29;20223;-72
2022/05/09 03:43:05;;;;;;;24.93;18.97;;;;;;;;;;4930563;29;20598;-72
2022/05/09 03:45:32;;;;;;;25.33;19.47;;;;;;;;;;4930268;29;20200;-72
2022/05/09 03:48:00;;;;;;;25.07;19.50;;;;;;;;;;4932229;29;20294;-72
2022/05/09 03:50:28;;;;;;;25.50;19.80;;;;;;;;;;4935821;29;20231;-72
2022/05/09 03:52:57;;;;;;;27.30;19.60;;;;;;;;;;4934631;29;20208;-72
2022/05/09 03:55:24;;;;;;;26.43;19.30;;;;;;;;;;4934038;29;20303;-72
2022/05/09 03:57:52;;;;;;;28.40;20.57;;;;;;;;;;4933467;29;20240;-72
2022/05/09 04:00:21;;;;;;;29.40;20.30;;;;;;;;;;4933919;29;20822;-72
2022/05/09 04:02:48;;;;;;;28.77;19.50;;;;;;;;;;4933245;29;20252;-72
2022/05/09 04:05:17;;;;;;;27.37;20.70;;;;;;;;;;4936511;29;20577;-72
2022/05/09 04:07:45;;;;;;;32.67;21.33;;;;;;;;;;4931443;29;20205;-72
2022/05/09 04:10:14;;;;;;;27.93;19.90;;;;;;;;;;4933763;29;20303;-73
2022/05/09 04:12:41;;;;;;;29.90;20.23;;;;;;;;;;4938016;29;20207;-72
2022/05/09 04:17:54;;;;;;;30.30;21.30;;;;;;;;;;4937413;29;20692;-72
2022/05/09 04:20:21;;;;;;;31.60;20.73;;;;;;;;;;4935129;29;20272;-72
2022/05/09 04:22:49;;;;;;;32.33;21.83;;;;;;;;;;4932389;29;20214;-72
2022/05/09 04:25:19;;;;;;;28.00;20.13;;;;;;;;;;4954275;28;20266;-72
2022/05/09 04:27:46;;;;;;;27.27;19.00;;;;;;;;;;4952103;28;20212;-72
2022/05/09 04:30:14;;;;;;;24.80;17.80;;;;;;;;;;4950690;29;20299;-71
2022/05/09 04:32:41;;;;;;;22.17;17.10;;;;;;;;;;4949758;29;20239;-72
2022/05/09 04:35:13;;;;;;;21.53;15.83;;;;;;;;;;4948551;29;20199;-72
2022/05/09 04:37:43;;;;;;;17.83;15.17;;;;;;;;;;4945541;29;20219;-71
2022/05/09 04:40:11;;;;;;;20.20;16.00;;;;;;;;;;4932185;29;20223;-72
2022/05/09 04:42:40;;;;;;;17.63;15.17;;;;;;;;;;4949850;29;20710;-71
2022/05/09 04:45:07;;;;;;;18.97;15.13;;;;;;;;;;4949296;28;20298;-71
2022/05/09 04:47:35;;;;;;;18.77;15.10;;;;;;;;;;4950237;29;20290;-72
2022/05/09 04:50:02;;;;;;;18.00;14.70;;;;;;;;;;4947031;29;20298;-71
2022/05/09 04:52:29;;;;;;;21.07;15.60;;;;;;;;;;4950518;28;20657;-72
2022/05/09 04:54:57;;;;;;;25.23;17.00;;;;;;;;;;4949438;29;20290;-71
2022/05/09 04:57:24;;;;;;;23.20;17.27;;;;;;;;;;4951084;29;20210;-71
2022/05/09 04:59:52;;;;;;;20.47;16.80;;;;;;;;;;4948082;28;20318;-72
2022/05/09 05:02:20;;;;;;;23.60;18.00;;;;;;;;;;4951946;29;20211;-71
2022/05/09 05:04:47;;;;;;;30.20;20.00;;;;;;;;;;4951418;29;20269;-72
2022/05/09 05:07:14;;;;;;;25.87;18.87;;;;;;;;;;4951517;28;20305;-72
2022/05/09 05:09:41;;;;;;;25.30;18.70;;;;;;;;;;4953289;28;20314;-74
2022/05/09 05:12:09;;;;;;;24.07;17.70;;;;;;;;;;4951731;29;20261;-74
2022/05/09 05:14:36;;;;;;;24.63;17.23;;;;;;;;;;4952852;28;20314;-74
2022/05/09 05:17:05;;;;;;;23.43;17.77;;;;;;;;;;4951855;29;20227;-73
2022/05/09 05:19:35;;;;;;;23.87;17.97;;;;;;;;;;4951712;29;20366;-74
2022/05/09 05:22:03;;;;;;;24.93;18.73;;;;;;;;;;4949473;29;20615;-74
2022/05/09 05:24:30;;;;;;;24.00;17.57;;;;;;;;;;4942387;29;20245;-75
2022/05/09 05:26:57;;;;;;;28.80;19.90;;;;;;;;;;4938577;29;20291;-74
2022/05/09 05:29:25;;;;;;;22.90;17.80;;;;;;;;;;4936854;29;20247;-74
2022/05/09 05:31:52;;;;;;;22.30;17.20;;;;;;;;;;4931939;29;20413;-75
2022/05/09 05:34:21;;;;;;;20.50;17.17;;;;;;;;;;4929537;29;20266;-73
2022/05/09 05:36:50;;;;;;;20.30;17.03;;;;;;;;;;4925190;29;21037;-75
2022/05/09 05:39:17;;;;;;;18.50;16.07;;;;;;;;;;4928299;29;21047;-74
2022/05/09 05:41:45;;;;;;;21.23;17.00;;;;;;;;;;4928761;29;20200;-75
2022/05/09 05:44:12;;;;;;;23.73;18.33;;;;;;;;;;4930135;29;20295;-75
2022/05/09 05:46:40;;;;;;;21.07;15.93;;;;;;;;;;4929885;29;20296;-71
2022/05/09 05:49:08;;;;;;;20.67;15.60;;;;;;;;;;4934685;29;20301;-75
2022/05/09 05:51:37;;;;;;;18.17;14.83;;;;;;;;;;4934658;29;20212;-74
2022/05/09 05:54:05;;;;;;;17.50;15.70;;;;;;;;;;4934290;29;20215;-74
2022/05/09 05:56:33;;;;;;;19.33;15.37;;;;;;;;;;4931429;29;20696;-75
2022/05/09 05:59:01;;;;;;;17.90;14.07;;;;;;;;;;4936551;29;20203;-79
2022/05/09 06:01:28;;;;;;;17.67;13.67;;;;;;;;;;4934000;29;20255;-78
2022/05/09 06:03:55;;;;;;;19.90;14.57;;;;;;;;;;4925049;29;20239;-77
2022/05/09 06:06:22;;;;;;;16.63;13.90;;;;;;;;;;4929676;29;20236;-78
2022/05/09 06:08:51;;;;;;;17.10;13.37;;;;;;;;;;4934498;29;20322;-78
2022/05/09 06:11:18;;;;;;;17.47;13.80;;;;;;;;;;4921224;29;20295;-78
2022/05/09 06:13:45;;;;;;;18.83;13.07;;;;;;;;;;4916351;29;20299;-78
2022/05/09 06:16:12;;;;;;;15.80;12.88;;;;;;;;;;4929298;29;20607;-78
2022/05/09 06:18:39;;;;;;;17.63;12.57;;;;;;;;;;4929316;29;20627;-78
2022/05/09 06:21:07;;;;;;;16.75;13.07;;;;;;;;;;4923992;29;20310;-78
2022/05/09 06:23:34;;;;;;;15.65;12.98;;;;;;;;;;4940320;29;20243;-78
2022/05/09 06:26:02;;;;;;;13.82;12.38;;;;;;;;;;4934807;29;20250;-78
2022/05/09 06:28:30;;;;;;;13.88;12.18;;;;;;;;;;4935047;29;20235;-78
2022/05/09 06:30:57;;;;;;;17.13;11.90;;;;;;;;;;4937172;29;20333;-79
2022/05/09 06:33:25;;;;;;;18.60;12.25;;;;;;;;;;4955185;29;20210;-78
2022/05/09 06:35:53;;;;;;;16.30;11.48;;;;;;;;;;4954994;29;20278;-79
2022/05/09 06:38:22;;;;;;;15.68;12.10;;;;;;;;;;4951411;29;20290;-79
2022/05/09 06:40:50;;;;;;;15.43;12.13;;;;;;;;;;4934989;29;20318;-79
2022/05/09 06:43:19;;;;;;;16.70;11.63;;;;;;;;;;4937960;29;20250;-79
2022/05/09 06:45:47;;;;;;;14.75;11.82;;;;;;;;;;4934263;29;20303;-78
2022/05/09 06:48:14;;;;;;;13.55;11.27;;;;;;;;;;4934813;29;20243;-79
2022/05/09 06:50:41;;;;;;;15.82;11.13;;;;;;;;;;4935156;29;20203;-77
2022/05/09 06:53:09;;;;;;;14.20;11.55;;;;;;;;;;4934965;29;20287;-79
2022/05/09 06:55:36;;;;;;;12.68;11.07;;;;;;;;;;4934939;29;20244;-77
2022/05/09 06:58:07;;;;;;;15.77;11.00;;;;;;;;;;4934778;29;20215;-79
2022/05/09 07:00:35;;;;;;;13.63;11.52;;;;;;;;;;4934563;29;20259;-77
2022/05/09 07:03:03;;;;;;;13.77;11.05;;;;;;;;;;4934647;29;20231;-77
2022/05/09 07:05:30;;;;;;;12.73;10.82;;;;;;;;;;4936971;29;20291;-76
2022/05/09 07:07:58;;;;;;;14.32;10.50;;;;;;;;;;4954226;28;20256;-73
2022/05/09 07:10:26;;;;;;;12.35;10.32;;;;;;;;;;4953266;29;20310;-73
2022/05/09 07:12:54;;;;;;;13.98;10.90;;;;;;;;;;4953730;29;20262;-73
2022/05/09 07:15:23;;;;;;;12.38;11.07;;;;;;;;;;4953070;28;20202;-73
2022/05/09 07:17:52;;;;;;;13.30;10.43;;;;;;;;;;4953681;28;20203;-73
2022/05/09 07:20:20;;;;;;;13.45;10.65;;;;;;;;;;4953096;29;20227;-73
2022/05/09 07:22:48;;;;;;;14.45;10.95;;;;;;;;;;4953141;28;20290;-73
2022/05/09 07:25:16;;;;;;;12.32;10.98;;;;;;;;;;4953474;29;20618;-73
2022/05/09 07:27:43;;;;;;;12.13;10.93;;;;;;;;;;4953479;29;20301;-73
2022/05/09 07:30:11;;;;;;;12.15;10.93;;;;;;;;;;4952815;29;20203;-73
2022/05/09 07:32:38;;;;;;;13.40;10.98;;;;;;;;;;4953667;29;20212;-73
2022/05/09 07:35:08;;;;;;;11.93;10.73;;;;;;;;;;4937679;29;20295;-73
2022/05/09 07:37:35;;;;;;;11.13;10.02;;;;;;;;;;4934117;29;20307;-73
2022/05/09 07:40:02;;;;;;;11.13;10.02;;;;;;;;;;4934157;29;20235;-73
2022/05/09 07:42:29;;;;;;;12.00;10.73;;;;;;;;;;4934335;29;20218;-73
2022/05/09 07:44:57;;;;;;;12.93;11.07;;;;;;;;;;4940705;29;20257;-73
2022/05/09 07:47:24;;;;;;;13.07;11.02;;;;;;;;;;4953360;29;20203;-73
2022/05/09 07:49:51;;;;;;;13.00;11.70;;;;;;;;;;4941600;29;20208;-73
2022/05/09 07:52:20;;;;;;;12.15;10.30;;;;;;;;;;4934004;29;20294;-73
2022/05/09 07:54:48;;;;;;;12.65;11.15;;;;;;;;;;4934057;29;20235;-73
2022/05/09 07:57:15;;;;;;;14.15;10.32;;;;;;;;;;4934130;29;20203;-74
2022/05/09 07:59:43;;;;;;;14.93;12.15;;;;;;;;;;4934448;29;20249;-74
2022/05/09 08:02:10;;;;;;;15.65;11.00;;;;;;;;;;4952914;29;20311;-74
2022/05/09 08:04:38;;;;;;;15.45;10.85;;;;;;;;;;4953095;29;20291;-73
2022/05/09 08:07:05;;;;;;;13.43;11.20;;;;;;;;;;4953161;29;20692;-74
2022/05/09 08:09:34;;;;;;;15.80;11.43;;;;;;;;;;4952869;29;20311;-73
2022/05/09 08:12:03;;;;;;;13.00;11.70;;;;;;;;;;4949006;29;20204;-74
2022/05/09 08:14:30;;;;;;;12.43;10.20;;;;;;;;;;4947027;29;20277;-73
2022/05/09 08:16:58;;;;;;;12.88;11.57;;;;;;;;;;4953188;29;20618;-74
2022/05/09 08:19:25;;;;;;;14.35;12.10;;;;;;;;;;4953138;29;20698;-74
2022/05/09 08:21:53;;;;;;;17.10;11.75;;;;;;;;;;4951721;28;20287;-74
2022/05/09 08:24:20;;;;;;;13.02;11.63;;;;;;;;;;4953034;29;20331;-74
2022/05/09 08:26:48;;;;;;;13.52;11.60;;;;;;;;;;4952145;28;20199;-74
2022/05/09 08:29:16;;;;;;;14.45;11.90;;;;;;;;;;4949263;29;20203;-74
2022/05/09 08:31:43;;;;;;;12.98;11.43;;;;;;;;;;4952498;28;20671;-73
2022/05/09 08:34:10;;;;;;;13.57;12.15;;;;;;;;;;4955018;28;20671;-74
2022/05/09 08:36:51;;;;;;;13.95;11.60;;;;;;;;;;4956256;28;20671;-74
2022/05/09 08:39:18;;;;;;;13.18;11.15;;;;;;;;;;4956555;28;20225;-74
2022/05/09 08:41:53;;;;;;;13.48;11.38;;;;;;;;;;4955704;28;20269;-74
2022/05/09 08:44:23;;;;;;;13.20;11.52;;;;;;;;;;4956292;28;20210;-74
2022/05/09 08:46:59;;;;;;;15.93;10.15;;;;;;;;;;4955310;28;20227;-74
2022/05/09 08:49:34;;;;;;;13.93;11.63;;;;;;;;;;4956718;28;20203;-74
2022/05/09 08:52:06;;;;;;;14.60;11.38;;;;;;;;;;4937356;29;20200;-74
2022/05/09 08:54:33;;;;;;;12.55;11.15;;;;;;;;;;4938335;29;20290;-74
2022/05/09 08:57:07;;;;;;;13.95;11.77;;;;;;;;;;4955384;29;20286;-74
2022/05/09 08:59:37;;;;;;;13.35;11.55;;;;;;;;;;4956193;29;20242;-74
2022/05/09 09:02:06;;;;;;;13.93;11.98;;;;;;;;;;4955647;29;20313;-74
2022/05/09 09:04:34;;;;;;;14.10;11.85;;;;;;;;;;4954630;29;20231;-74
2022/05/09 09:07:06;;;;;;;12.50;11.20;;;;;;;;;;4955029;28;20239;-74
2022/05/09 09:09:41;;;;;;;14.15;11.20;;;;;;;;;;4954856;28;20250;-74
2022/05/09 09:12:18;;;;;;;15.68;12.15;;;;;;;;;;4955026;28;20659;-74
2022/05/09 09:14:49;;;;;;;14.35;12.00;;;;;;;;;;4955927;28;20733;-74
2022/05/09 09:17:25;;;;;;;14.05;10.73;;;;;;;;;;4954477;28;20241;-74
2022/05/09 09:20:05;;;;;;;11.50;10.25;;;;;;;;;;4955626;29;20246;-74
2022/05/09 09:22:40;;;;;;;11.43;10.23;;;;;;;;;;4955913;29;20236;-74
2022/05/09 09:25:17;;;;;;;12.10;10.98;;;;;;;;;;4945383;28;20266;-74
2022/05/09 09:27:47;;;;;;;13.68;11.35;;;;;;;;;;4943522;29;20206;-74
2022/05/09 09:30:16;;;;;;;13.85;12.20;;;;;;;;;;4954891;28;20631;-74
2022/05/09 09:32:44;;;;;;;13.30;11.35;;;;;;;;;;4955551;29;20246;-74
2022/05/09 09:35:14;;;;;;;14.52;11.85;;;;;;;;;;4947628;29;20227;-75
2022/05/09 09:37:53;;;;;;;12.88;11.45;;;;;;;;;;4955609;28;20299;-75
2022/05/09 09:40:20;;;;;;;12.75;11.30;;;;;;;;;;4954069;29;20202;-74
2022/05/09 09:42:52;;;;;;;12.35;11.02;;;;;;;;;;4955363;28;20317;-74
2022/05/09 09:45:27;;;;;;;13.80;12.32;;;;;;;;;;4954087;28;20645;-74
2022/05/09 09:48:06;;;;;;;13.45;11.60;;;;;;;;;;4941442;29;20214;-74
2022/05/09 09:50:34;;;;;;;12.70;11.40;;;;;;;;;;4938659;29;20352;-75
2022/05/09 09:53:02;;;;;;;12.57;11.38;;;;;;;;;;4954849;29;20691;-74
2022/05/09 09:55:30;;;;;;;13.90;12.55;;;;;;;;;;4935314;29;20664;-74
2022/05/09 09:58:00;;;;;;;14.27;11.85;;;;;;;;;;4950469;29;20255;-74
2022/05/09 10:00:29;;;;;;;12.88;10.43;;;;;;;;;;4939511;29;20290;-74
2022/05/09 10:02:57;;;;;;;10.77;9.75;;;;;;;;;;4936086;29;20294;-74
2022/05/09 10:05:33;;;;;;;12.65;9.90;;;;;;;;;;4935621;29;20235;-74
2022/05/09 10:08:00;;;;;;;12.40;10.10;;;;;;;;;;4935423;29;20238;-75
2022/05/09 10:10:29;;;;;;;11.75;10.23;;;;;;;;;;4935605;29;20228;-74
2022/05/09 10:12:57;;;;;;;10.25;8.98;;;;;;;;;;4935945;29;20609;-74
2022/05/09 10:15:27;;;;;;;9.23;8.27;;;;;;;;;;4935586;29;20755;-74
2022/05/09 10:17:55;;;;;;;10.90;7.90;;;;;;;;;;4935703;29;20235;-74
2022/05/09 10:20:28;;;;;;;12.02;8.70;;;;;;;;;;4935436;29;20322;-75
2022/05/09 10:25:57;;;;;;;11.43;8.75;;;;;;;;;;4935328;29;20667;-74
2022/05/09 10:28:26;;;;;;;9.30;7.10;;;;;;;;;;4935320;29;20322;-74
2022/05/09 10:31:02;;;;;;;7.70;6.97;;;;;;;;;;4935548;29;20199;-74
2022/05/09 10:33:34;;;;;;;9.55;7.55;;;;;;;;;;4935447;29;20203;-75
2022/05/09 10:36:03;;;;;;;9.40;7.45;;;;;;;;;;4935300;29;20215;-75
2022/05/09 10:38:36;;;;;;;7.85;7.05;;;;;;;;;;4938029;29;20652;-74
2022/05/09 10:41:09;;;;;;;9.25;7.28;;;;;;;;;;4954441;28;20297;-75
2022/05/09 10:43:40;;;;;;;8.50;6.45;;;;;;;;;;4954155;28;20226;-74
2022/05/09 10:46:11;;;;;;;8.48;5.38;;;;;;;;;;4954359;29;20301;-74
2022/05/09 10:48:41;;;;;;;9.07;7.80;;;;;;;;;;4954223;29;20293;-74
2022/05/09 10:51:11;;;;;;;7.00;5.97;;;;;;;;;;4950924;29;20295;-74
2022/05/09 10:53:42;;;;;;;7.90;5.82;;;;;;;;;;4934656;29;20693;-74
2022/05/09 10:56:12;;;;;;;6.20;5.43;;;;;;;;;;4934739;29;20290;-75
2022/05/09 10:58:41;;;;;;;5.72;5.13;;;;;;;;;;4934263;29;20636;-74
2022/05/09 11:01:11;;;;;;;8.60;7.38;;;;;;;;;;4947015;29;20286;-75
2022/05/09 11:03:40;;;;;;;8.90;6.80;;;;;;;;;;4953963;29;20326;-75
2022/05/09 11:06:14;;;;;;;7.93;6.80;;;;;;;;;;4952812;28;20218;-74
2022/05/09 11:08:57;;;;;;;5.95;5.43;;;;;;;;;;4953638;29;20294;-75
2022/05/09 11:11:29;;;;;;;6.80;5.28;;;;;;;;;;4953968;29;20305;-74
2022/05/09 11:14:00;;;;;;;6.25;5.20;;;;;;;;;;4941099;29;20235;-75
2022/05/09 11:16:34;;;;;;;6.20;5.60;;;;;;;;;;4953717;28;20294;-74
2022/05/09 11:19:17;;;;;;;7.47;5.80;;;;;;;;;;4952956;28;20209;-74
2022/05/09 11:21:48;;;;;;;7.38;6.40;;;;;;;;;;4952808;28;20221;-75
2022/05/09 11:24:22;;;;;;;7.75;5.90;;;;;;;;;;4953565;28;20238;-74
2022/05/09 11:26:54;;;;;;;6.45;5.68;;;;;;;;;;4953580;29;20243;-75
2022/05/09 11:29:36;;;;;;;7.45;5.53;;;;;;;;;;4953798;29;20245;-74
2022/05/09 11:32:21;;;;;;;8.45;5.43;;;;;;;;;;4953747;29;20282;-74
2022/05/09 11:34:58;;;;;;;4.68;4.22;;;;;;;;;;4952653;29;20245;-74
2022/05/09 11:37:29;;;;;;;5.90;4.78;;;;;;;;;;4953283;29;20238;-74
2022/05/09 11:40:04;;;;;;;4.78;4.07;;;;;;;;;;4952443;28;20226;-75
2022/05/09 11:45:28;;;;;;;5.85;4.10;;;;;;;;;;4951907;28;20237;-75
2022/05/09 11:48:01;;;;;;;4.90;4.22;;;;;;;;;;4953331;28;20226;-75
2022/05/09 11:50:34;;;;;;;5.93;4.55;;;;;;;;;;4934037;29;20304;-74
2022/05/09 11:53:02;;;;;;;4.70;3.90;;;;;;;;;;4950898;29;20214;-74
2022/05/09 11:55:30;;;;;;;4.57;3.75;;;;;;;;;;4940124;29;20290;-75
2022/05/09 11:57:58;;;;;;;5.32;3.38;;;;;;;;;;4934288;29;20242;-74
2022/05/09 12:00:47;;;;;;;5.10;3.30;;;;;;;;;;4947473;29;20218;-74
2022/05/09 12:03:15;;;;;;;5.45;3.65;;;;;;;;;;4945251;29;20318;-74
2022/05/09 12:05:56;;;;;;;5.82;3.55;;;;;;;;;;4952542;29;20249;-75
2022/05/09 12:08:24;;;;;;;4.35;3.95;;;;;;;;;;4953899;28;20696;-74
2022/05/09 12:10:51;;;;;;;5.97;3.95;;;;;;;;;;4956774;28;20247;-74
2022/05/09 12:13:33;;;;;;;6.55;4.05;;;;;;;;;;4956888;29;20678;-74
2022/05/09 12:16:01;;;;;;;5.85;4.25;;;;;;;;;;4956216;29;20621;-74
2022/05/09 12:18:30;;;;;;;4.70;3.90;;;;;;;;;;4953139;29;20298;-74
2022/05/09 12:21:03;;;;;;;5.85;4.43;;;;;;;;;;4956559;28;20298;-74
2022/05/09 12:23:50;;;;;;;4.82;4.22;;;;;;;;;;4956799;29;20257;-74
2022/05/09 12:26:29;;;;;;;5.43;4.43;;;;;;;;;;4956502;29;20298;-75
2022/05/09 12:29:08;;;;;;;5.93;4.40;;;;;;;;;;4947187;29;20692;-74
2022/05/09 12:31:40;;;;;;;4.30;3.90;;;;;;;;;;4937434;29;20694;-74
2022/05/09 12:34:09;;;;;;;5.55;4.43;;;;;;;;;;4937379;29;20239;-74
2022/05/09 12:36:38;;;;;;;5.30;4.80;;;;;;;;;;4938266;29;20650;-74
2022/05/09 12:39:09;;;;;;;5.00;4.50;;;;;;;;;;4948953;29;20206;-75
2022/05/09 12:41:42;;;;;;;5.53;4.00;;;;;;;;;;4937316;29;20294;-75
2022/05/09 12:44:10;;;;;;;5.70;4.38;;;;;;;;;;4937937;29;20243;-75
2022/05/09 12:46:40;;;;;;;3.70;3.30;;;;;;;;;;4956530;29;20689;-75
2022/05/09 12:49:09;;;;;;;4.78;2.95;;;;;;;;;;4956074;29;20234;-75
2022/05/09 12:51:43;;;;;;;3.85;2.58;;;;;;;;;;4956220;29;20246;-75
2022/05/09 12:54:11;;;;;;;4.45;3.15;;;;;;;;;;4956343;29;20651;-75
2022/05/09 12:56:39;;;;;;;3.63;2.80;;;;;;;;;;4947249;29;20702;-75
2022/05/09 12:59:08;;;;;;;3.65;3.30;;;;;;;;;;4949807;29;20210;-75
2022/05/09 13:01:36;;;;;;;5.32;3.70;;;;;;;;;;4956155;29;20302;-75
2022/05/09 13:04:05;;;;;;;4.78;3.80;;;;;;;;;;4951349;29;20246;-75
2022/05/09 13:06:33;;;;;;;3.90;3.60;;;;;;;;;;4944082;29;20199;-75
2022/05/09 13:09:12;;;;;;;4.00;3.60;;;;;;;;;;4956065;29;20225;-75
2022/05/09 13:11:39;;;;;;;4.25;3.47;;;;;;;;;;4955738;29;20203;-75
2022/05/09 13:14:09;;;;;;;4.03;3.10;;;;;;;;;;4956109;29;20243;-75
2022/05/09 13:16:38;;;;;;;4.35;3.40;;;;;;;;;;4955321;29;20294;-75
2022/05/09 13:19:05;;;;;;;3.42;3.00;;;;;;;;;;4955668;29;20242;-75
2022/05/09 13:21:35;;;;;;;3.95;3.15;;;;;;;;;;4954571;28;20245;-75
2022/05/09 13:24:04;;;;;;;4.35;2.97;;;;;;;;;;4955670;29;20249;-74
2022/05/09 13:26:32;;;;;;;3.50;2.67;;;;;;;;;;4954786;29;20203;-75
2022/05/09 13:29:08;;;;;;;2.70;2.50;;;;;;;;;;4955638;28;20210;-75
2022/05/09 13:31:38;;;;;;;4.03;3.17;;;;;;;;;;4955236;28;20651;-75
2022/05/09 13:34:05;;;;;;;3.38;3.08;;;;;;;;;;4938660;29;20203;-75
2022/05/09 13:36:36;;;;;;;3.33;2.83;;;;;;;;;;4939870;29;20286;-75
2022/05/09 13:39:06;;;;;;;4.03;2.97;;;;;;;;;;4955375;28;20303;-75
2022/05/09 13:41:33;;;;;;;4.60;3.03;;;;;;;;;;4953723;28;20672;-75
2022/05/09 13:44:02;;;;;;;3.42;2.75;;;;;;;;;;4936056;29;20232;-75
2022/05/09 13:46:31;;;;;;;2.80;2.50;;;;;;;;;;4950438;29;20231;-75
2022/05/09 13:48:59;;;;;;;3.92;2.60;;;;;;;;;;4955267;29;20209;-75
2022/05/09 13:51:28;;;;;;;3.70;2.65;;;;;;;;;;4955715;29;20245;-76
2022/05/09 13:53:57;;;;;;;3.33;2.20;;;;;;;;;;4951769;28;20238;-75
2022/05/09 13:56:26;;;;;;;3.58;2.45;;;;;;;;;;4948188;29;20218;-75
2022/05/09 13:58:56;;;;;;;3.03;2.55;;;;;;;;;;4945683;29;20227;-75
2022/05/09 14:01:24;;;;;;;5.82;3.20;;;;;;;;;;4947040;29;20290;-76
2022/05/09 14:03:54;;;;;;;4.10;2.55;;;;;;;;;;4942988;29;20227;-75
2022/05/09 14:06:23;;;;;;;3.22;2.70;;;;;;;;;;4943440;28;20570;-75
2022/05/09 14:08:51;;;;;;;3.30;3.00;;;;;;;;;;4954231;28;20582;-75
2022/05/09 14:11:30;;;;;;;4.28;2.78;;;;;;;;;;4952071;29;20301;-74
2022/05/09 14:13:59;;;;;;;2.90;2.53;;;;;;;;;;4950941;28;20231;-75
2022/05/09 14:16:32;;;;;;;2.95;2.65;;;;;;;;;;4953353;29;21999;-74
2022/05/09 14:19:02;;;;;;;3.13;2.83;;;;;;;;;;4953181;28;20636;-75
2022/05/09 14:21:31;;;;;;;3.30;2.88;;;;;;;;;;4954188;29;20335;-75
2022/05/09 14:23:59;;;;;;;3.92;2.70;;;;;;;;;;4937400;29;20274;-74
2022/05/09 14:32:02;;;;;;;4.72;3.08;;;;;;;;;;4939624;29;20283;-74
2022/05/09 14:34:33;;;;;;;3.80;3.25;;;;;;;;;;4950443;29;20291;-74
2022/05/09 14:37:12;;;;;;;5.88;3.03;;;;;;;;;;4942096;29;20255;-74
2022/05/09 14:39:42;;;;;;;4.00;2.63;;;;;;;;;;4938871;29;20294;-75
2022/05/09 14:42:13;;;;;;;3.88;3.10;;;;;;;;;;4938786;29;20195;-75
2022/05/09 14:44:43;;;;;;;3.47;3.15;;;;;;;;;;4952252;29;20298;-75
2022/05/09 14:47:15;;;;;;;3.65;2.95;;;;;;;;;;4952404;28;20234;-75
2022/05/09 14:49:44;;;;;;;4.05;3.17;;;;;;;;;;4952360;28;20234;-75
2022/05/09 14:52:13;;;;;;;5.80;3.63;;;;;;;;;;4950594;28;20646;-75
2022/05/09 14:54:43;;;;;;;3.72;3.20;;;;;;;;;;4947010;29;20295;-75
2022/05/09 14:57:25;;;;;;;4.55;3.10;;;;;;;;;;4942014;29;20286;-75